cloudbaseCUmx.php :- Version MX_2.2.4a - 22-April-2022
    copyright © 2023 Silver Acorn Weather 
    PHP Version 5.6.40


TIME and DATE
    Time Zone :- Chicago/America (GMT-5 hours)
    Daylight saving ? :- No
    Date/Time :- Mon, 30 Jan 2023 00:29:58 (Night)
    Last updated :- 23:25 Sunday, January 29, 2023

INPUT ITEM: RAW DATA -> DERIVED
    Current temp :- 21.7 °F
    Dewpoint :- 18.4 °F
    Rain Fall :- 0.00 in
    Barometer :- 30 in
    Humidity :- 87 %
    Wind Speed :- 4 mph
    Wind Dir :- 360 degrees
    Cloud Altitude :- 803 ft (ASL)
    Latitude :- 38.838889 N = Northern Hemisphere
    Season :- Winter
    Moon Age :- 8 days
    Moon Percent :- 66
    Day or Night ? :- Night
    Tag file time Interval :- 5 Minutes

CUMULUS CONDITIONS
    Cumulus conditions not in use
    Zambretti # :- 1

METAR CONDITONS - Metar Times UTC, Update Station times based on timezone setting
    $pathToMetFile :- ./cache/
    Metar - Rawdata :- 2023/01/30 05:00 KSUS 300500Z 36010KT 3SM -FZRA BR BKN008 OVC013 M05/M06 A3031 RMK AO2 UPE00FZRAB00 CIG 005V010 P0000 T10501061
    Metar - Trimmed :- 300500Z 36010KT 3SM -FZRA BR BKN008 OVC013 M05/M06 A3031 RMK AO2 UPE00FZRAB00 CIG 005V010 P0000 T10501061
    Metar - Decoded :- Is Raining; Misty, Mostly cloudy, Overcast
    Now :- 1675056598 seconds
    Metar report timestamp :- 1675054800 seconds
    Age of File :- 29.97 minutes
    When to update Metar :- 1675057140 seconds   (Metar report timestamp plus 39 mins refresh time)
    Next Download in :- 9.03 Minutes (if  '-' then refresh page, if still '-' then Metar update overdue!)
    Metar file :- Existing file used
     AUTO Metar station updates usually every 30 minutes. MANUAL Metar station updates usually Hourly.

OUTPUT DATA

    Background image file name :- ./images/cb/cb-bg-00winn.png
    $showAGL / ASL :- true
    Cloud Temp :- 18 °F
    $useWXrain :- true
    $tag interval :- 5
    Last rained :- 4.36 days ago
    Last rained Y-M-D h:m :- 2023-01-25 14:53
    No rain in last 5 minutes :- Not raining
    Moon Image (cbmoon.png) created @ :- 00:29:58

SETTINGS
    $tagfile :- ./CUtags.php
    $time last update :- 23:25 on 29 January 2023
    $ICAO :- KSUS
    $pathToMetFile :- ./cache/
    $tz :- Chicago/America
    $pathToImages :- ./images/cb/  ( background, cloud, windsock and scale images )
    $srcmoonimgdir :- ./images/moon/  ( source of moon images )
    $dstmoonimgdir :- ./images/moon/  ( cbmoon.png )
    $switchSeasons :- true
    $showCldSource :- true
    $showCloudTemp :- true
    $showCaption :- true
    $showMoon :- true
    $showScale :- true
    $showWinsock :- false
    $showWindDir :- false
    $showWindSpd :- false
    $showTemp :- false
    $showHumidity :- false
    $showBaro :- false
    $alwaysShowCloud :- false
    $useCUHeight :- true
    $getMetar :- true
    $metarRefresh :- true
    $useMetarAtNight :- true
    $onlyUseMetar :- true
    $reportMistAt :- 25 ft
    $reportFogAt :- 10 ft
    $stationAltitude :- 532 ft ASL